M I D A S
Marine Information and Data Acquisition System
Tripno 374 of the Zeeleeuw from 2002-12-23 07:53:17 to 2002-12-23 15:56:21
Back to CruiseResearch ActivitiesStationsMapUnderway DataData graphs

EquipmentUnitsComment
TimeDGPSUTC
LatitudeDGPSDM.mWGS84
LongitudeDGPSDM.mWGS84
HeadingGyrodeg 
SOGDGPSknotsSpeed over ground
COGDGPSdegCourse over ground
DepthEcho soundermeters200 kHz
Missing or incorrect values are displayed as -999
Navigation data collected by the RV Zeeleeuw from 2002-12-23 07:53:17 to 2002-12-23 15:56:21
                                                                                    Next 1000 lines
Time Latitude Longitude Heading SOG COG Depth
2002-12-23 07:53:24 51°13.611 2°56.075 115   337.5 6.6
2002-12-23 07:53:28 51°13.611 2°56.073 115.5 0.3 307.3 6.8
2002-12-23 07:53:34 51°13.613 2°56.07 116.5 0.6 305.3 6.9
2002-12-23 07:53:38 51°13.613 2°56.067 116.8 1.6 300.7 6.9
2002-12-23 07:53:43 51°13.615 2°56.062 116.2 2.3 300.7 11.7
2002-12-23 07:53:49 51°13.617 2°56.054 115.2 2.9 297.1 12
2002-12-23 07:53:54 51°13.62 2°56.047 114.8 3.3 296.7 13.4
2002-12-23 07:53:58 51°13.622 2°56.04 115.2 3.8 295.1 13.3
2002-12-23 07:54:04 51°13.625 2°56.029 114.7 4.3 294.5 -999
2002-12-23 07:54:08 51°13.627 2°56.021 113.7 4.7 293.7 12
2002-12-23 07:54:14 51°13.631 2°56.008 112.5 5.1 292.7 12.7
2002-12-23 07:54:18 51°13.633 2°55.999 111.3 5.4 292 11.1
2002-12-23 07:54:24 51°13.636 2°55.985 110.8 5.7 291.2 9
2002-12-23 07:54:28 51°13.639 2°55.975 111 5.9 290.9 8.9
2002-12-23 07:54:34 51°13.642 2°55.959 110.8 6.1 290.5 9.1
2002-12-23 07:54:38 51°13.644 2°55.948 110.3 6.3 290.2 12.1
2002-12-23 07:54:44 51°13.648 2°55.932 109.7 6.4 289.6 11.4
2002-12-23 07:54:49 51°13.651 2°55.918 109 6.6 288.7 12.5
2002-12-23 07:54:53 51°13.653 2°55.907 108.8 6.7 288 8.9
2002-12-23 07:54:58 51°13.656 2°55.893 108.7 6.6 287.7 -999
2002-12-23 07:55:04 51°13.659 2°55.877 107.7 6.4 286.8 8.1
2002-12-23 07:55:09 51°13.662 2°55.864 106.3 6.1 286.8 8.1
2002-12-23 07:55:14 51°13.664 2°55.852 105 5.8 286 8.1
2002-12-23 07:55:18 51°13.665 2°55.843 103.3 5.5 285.6 8.3
2002-12-23 07:55:23 51°13.667 2°55.832 101.2 5.3 284.4 8.2
2002-12-23 07:55:28 51°13.669 2°55.822 98.5 5 282.9 8.1
2002-12-23 07:55:34 51°13.67 2°55.809 95.7 4.8 281.2 8
2002-12-23 07:55:38 51°13.671 2°55.802 92.7 4.5 279.2 8
2002-12-23 07:55:43 51°13.671 2°55.793 88.8 4.2 276.5 8.4
2002-12-23 07:55:48 51°13.672 2°55.786 84.8 3.6 274.3 8.8
2002-12-23 07:55:54 51°13.672 2°55.78 79.3 2.9 271.4 9
2002-12-23 07:55:58 51°13.672 2°55.777 73 2.2 270.1 9.1
2002-12-23 07:56:03 51°13.672 2°55.774 67.3 1.7 270.9 9.3
2002-12-23 07:56:08 51°13.672 2°55.772 62.8 1.2 275.3 9.5
2002-12-23 07:56:14 51°13.673 2°55.77 58.5 0.8 285.5 9.7
2002-12-23 07:56:18 51°13.674 2°55.77 53.8 0.6 308.8 9.7
2002-12-23 07:56:22 51°13.674 2°55.769 48.7 0.6 338.4 9.7
2002-12-23 07:56:28 51°13.676 2°55.769 43.7 0.8 358.1 9.9
2002-12-23 07:56:34 51°13.678 2°55.77 38.3 1 6.3 10
2002-12-23 07:56:38 51°13.679 2°55.77 32.2 1.2 8.2 10.7
2002-12-23 07:56:42 51°13.681 2°55.77 26.2 1.5 6.4 11.3
2002-12-23 07:56:48 51°13.684 2°55.77 19.7 1.7 2.3 11.3
2002-12-23 07:56:53 51°13.687 2°55.769 13 2 357 11.3
2002-12-23 07:56:58 51°13.69 2°55.768 6.3 2.2 351.2 11.3
2002-12-23 07:57:04 51°13.695 2°55.766 0.2 2.5 344.8 11.3
2002-12-23 07:57:08 51°13.698 2°55.764 353.2 2.8 340.1 11.3
2002-12-23 07:57:14 51°13.703 2°55.759 346.2 3.2 334.7 11.3
2002-12-23 07:57:18 51°13.707 2°55.755 340.2 3.7 330.8 11.4
2002-12-23 07:57:24 51°13.713 2°55.748 336.7 4.2 327.4 11.4
2002-12-23 07:57:26 51°13.715 2°55.746 334.8 4.7 325.7 11.1
2002-12-23 07:57:34 51°13.725 2°55.736 334.2 5.1 324.6 9.3
2002-12-23 07:57:38 51°13.73 2°55.73 334.5 5.5 324.5 9.1
2002-12-23 07:57:43 51°13.736 2°55.723 334.7 5.8 325.1 8.8
2002-12-23 07:57:49 51°13.745 2°55.713 334.8 6.1 325.7 8.6
2002-12-23 07:57:54 51°13.752 2°55.705 334.7 6.4 326.3 8.4
2002-12-23 07:57:58 51°13.758 2°55.699 334.5 6.6 326.6 8.4
2002-12-23 07:58:02 51°13.765 2°55.692 334.7 6.8 327 8.4
2002-12-23 07:58:08 51°13.775 2°55.683 335.3 7 327.7 8.5
2002-12-23 07:58:13 51°13.784 2°55.675 336.3 7.2 328.6 9.1
2002-12-23 07:58:18 51°13.793 2°55.667 337.2 7.4 329.6 9.2
2002-12-23 07:58:22 51°13.801 2°55.66 338 7.6 330.7 9.5
2002-12-23 07:58:28 51°13.812 2°55.65 338.8 7.7 331.5 9.5
2002-12-23 07:58:34 51°13.824 2°55.641 339.3 7.9 332.4 9.4
2002-12-23 07:58:38 51°13.831 2°55.634 339.2 8 332.9 9.3
2002-12-23 07:58:44 51°13.843 2°55.624 339 8.1 333.2 9.3
2002-12-23 07:58:48 51°13.851 2°55.618 339.5 8.1 333.7 9.1
2002-12-23 07:58:54 51°13.864 2°55.608 340.2 8.2 334.5 9.2
2002-12-23 07:58:58 51°13.872 2°55.602 341 8.3 335.4 9.2
2002-12-23 07:59:03 51°13.883 2°55.594 341.2 8.3 336 9.2
2002-12-23 07:59:08 51°13.893 2°55.587 340.8 8.4 336 9.2
2002-12-23 07:59:13 51°13.904 2°55.579 340.3 8.4 335.7 9.3
2002-12-23 07:59:18 51°13.915 2°55.571 340.5 8.4 335.4 9.3
2002-12-23 07:59:22 51°13.923 2°55.565 340.7 8.5 335.6 9.3
2002-12-23 07:59:28 51°13.936 2°55.556 340.5 8.5 335.9 9.3
2002-12-23 07:59:34 51°13.949 2°55.546 340.7 8.5 335.6 9.3
2002-12-23 07:59:38 51°13.957 2°55.54 341 8.5 335.8 9.3
2002-12-23 07:59:42 51°13.966 2°55.534 341.2 8.5 335.9 9.3
2002-12-23 07:59:48 51°13.979 2°55.525 341.2 8.5 336 9.3
2002-12-23 07:59:54 51°13.992 2°55.516 340.5 8.5 335.9 9.3
2002-12-23 07:59:58 51°14.001 2°55.509 340.7 8.6 335.6 9.3
2002-12-23 08:00:03 51°14.012 2°55.501 341 8.8 335.7 9.3
2002-12-23 08:00:08 51°14.024 2°55.492 340.2 9.1 335.5 9.3
2002-12-23 08:00:13 51°14.036 2°55.483 340.2 9.5 334.8 9
2002-12-23 08:00:18 51°14.049 2°55.473 340.8 9.9 335 9
2002-12-23 08:00:22 51°14.059 2°55.466 340.5 10.2 334.9 8.8
2002-12-23 08:00:28 51°14.075 2°55.453 340.5 10.6 334.5 8.7
2002-12-23 08:00:34 51°14.092 2°55.44 340.2 11 334.5 9.1
2002-12-23 08:00:38 51°14.103 2°55.431 339 11.3 333.9 8.4
2002-12-23 08:00:42 51°14.115 2°55.422 339.3 11.5 333.2 8.9
2002-12-23 08:00:48 51°14.132 2°55.408 339 11.6 333.3 9.1
2002-12-23 08:00:54 51°14.149 2°55.393 337.5 11.8 332.4 9.1
2002-12-23 08:00:58 51°14.161 2°55.382 335.7 11.9 330.7 9.1
2002-12-23 08:01:04 51°14.178 2°55.365 334.2 12 329.1 9.1
2002-12-23 08:01:08 51°14.189 2°55.353 332.7 12 327.4 9
2002-12-23 08:01:14 51°14.206 2°55.335 331.2 12 325.9 9.1
2002-12-23 08:01:18 51°14.216 2°55.322 329.2 12 324 9
2002-12-23 08:01:23 51°14.229 2°55.306 326.8 12 322.5 9
2002-12-23 08:01:28 51°14.242 2°55.288 325.5 12 319.8 8.8
2002-12-23 08:01:34 51°14.256 2°55.266 324.2 12 318.6 8.7
2002-12-23 08:01:38 51°14.265 2°55.251 321.2 12 316.5 8.9
2002-12-23 08:01:43 51°14.277 2°55.231 319 12.2 313.7 8.9
2002-12-23 08:01:48 51°14.289 2°55.21 317 12.5 312.3 8.9
2002-12-23 08:01:53 51°14.299 2°55.188 316.3 12.8 310 8.8
2002-12-23 08:01:58 51°14.311 2°55.166 316.2 13 309.8 9
2002-12-23 08:02:02 51°14.32 2°55.148 315 13.1 308.9 9.1
2002-12-23 08:02:08 51°14.334 2°55.12 315 13.2 308.6 8.6
2002-12-23 08:02:14 51°14.348 2°55.092 315.3 13.3 308.8 8.6
2002-12-23 08:02:18 51°14.358 2°55.074 317 13.4 309.8 9.1
2002-12-23 08:02:24 51°14.373 2°55.048 319.7 13.5 311.5 9
2002-12-23 08:02:28 51°14.384 2°55.031 322 13.6 314.1 9
2002-12-23 08:02:34 51°14.401 2°55.005 322.2 13.7 315.1 8.8
2002-12-23 08:02:38 51°14.412 2°54.988 323.3 13.8 315.2 8.6
2002-12-23 08:02:43 51°14.426 2°54.967 324.7 13.8 316 8.6
2002-12-23 08:02:48 51°14.44 2°54.947 326.2 13.8 317 8.5
2002-12-23 08:02:54 51°14.457 2°54.923 328.2 13.8 318.5 8.5
2002-12-23 08:02:58 51°14.469 2°54.908 330 13.8 319.9 8.3
2002-12-23 08:03:02 51°14.482 2°54.893 331.8 13.8 321.6 8.3
2002-12-23 08:03:08 51°14.5 2°54.871 334 13.8 323.4 8.3
2002-12-23 08:03:14 51°14.519 2°54.852 336.5 13.7 325.7 8.3
2002-12-23 08:03:18 51°14.532 2°54.84 339.3 13.7 328.3 8.3
2002-12-23 08:03:23 51°14.549 2°54.826 342.3 13.6 330.9 8.2
2002-12-23 08:03:28 51°14.567 2°54.813 345.8 13.6 334 8.1
2002-12-23 08:03:34 51°14.588 2°54.801 349.5 13.5 337.3 8.1
2002-12-23 08:03:38 51°14.602 2°54.794 353.5 13.4 340.9 8
2002-12-23 08:03:42 51°14.616 2°54.788 355.8 13.3 343.5 8
2002-12-23 08:03:48 51°14.637 2°54.779 357.7 13.1 345.1 7.9
2002-12-23 08:03:52 51°14.651 2°54.774 359.2 13 346.7 7.9
2002-12-23 08:03:58 51°14.672 2°54.768 0.8 12.9 348.2 7.9
2002-12-23 08:04:03 51°14.69 2°54.763 2.3 12.9 349.5 7.9
2002-12-23 08:04:08 51°14.707 2°54.759 3.5 12.9 351 7.9
2002-12-23 08:04:14 51°14.729 2°54.754 4 12.9 351.9 7.9
2002-12-23 08:04:18 51°14.743 2°54.751 4.8 12.9 352.4 7.8
2002-12-23 08:04:23 51°14.761 2°54.749 6.2 12.9 353.7 7.8
2002-12-23 08:04:28 51°14.778 2°54.747 7.3 12.8 355.1 7.9
2002-12-23 08:04:34 51°14.8 2°54.744 7.5 12.8 355.6 7.8
2002-12-23 08:04:38 51°14.814 2°54.742 7.3 12.8 355.6 7.8
2002-12-23 08:04:42 51°14.828 2°54.74 6.8 12.8 354.9 7.8
2002-12-23 08:04:48 51°14.849 2°54.736 5 12.8 353.6 7.7
2002-12-23 08:04:53 51°14.866 2°54.73 1.8 12.8 350.8 7.7
2002-12-23 08:04:58 51°14.884 2°54.722 357.3 12.8 346.6 7.8
2002-12-23 08:05:02 51°14.897 2°54.715 353.2 12.9 342.1 7.7
2002-12-23 08:05:08 51°14.917 2°54.701 349.7 13 338.6 7.6
2002-12-23 08:05:14 51°14.937 2°54.687 348.7 13 336.4 7.6
2002-12-23 08:05:18 51°14.95 2°54.678 349 13 336.4 7.5
2002-12-23 08:05:24 51°14.97 2°54.666 350.8 12.9 337.7 7.4
2002-12-23 08:05:28 51°14.983 2°54.66 353.7 12.7 340.8 7.4
2002-12-23 08:05:33 51°15 2°54.651 354 12.7 342.2 7.1
2002-12-23 08:05:38 51°15.018 2°54.643 354.3 12.7 342.9 7.1
2002-12-23 08:05:43 51°15.034 2°54.636 356.2 12.7 344.1 7.2
2002-12-23 08:05:48 51°15.051 2°54.631 359 12.5 346.4 7
2002-12-23 08:05:53 51°15.068 2°54.627 1.5 12.4 349.3 6.8
2002-12-23 08:05:58 51°15.085 2°54.624 4.3 12.3 352.5 6.9
2002-12-23 08:06:04 51°15.105 2°54.623 7.2 12.2 355 6.8
2002-12-23 08:06:08 51°15.119 2°54.623 10.3 12 358.9 6.8
2002-12-23 08:06:14 51°15.138 2°54.624 12.3 12 1.3 6.9
2002-12-23 08:06:18 51°15.152 2°54.626 14.3 11.9 3.3 6.9
2002-12-23 08:06:23 51°15.168 2°54.629 15.8 12 5 7
2002-12-23 08:06:28 51°15.185 2°54.633 18.8 12 7.5 7
2002-12-23 08:06:34 51°15.204 2°54.639 21 12 10.4 7
2002-12-23 08:06:38 51°15.217 2°54.643 20.7 11.9 11.1 7.1
2002-12-23 08:06:42 51°15.23 2°54.646 18.8 12 9.7 7.2
2002-12-23 08:06:48 51°15.25 2°54.648 15.2 12 5.9 7.2
2002-12-23 08:06:53 51°15.267 2°54.648 10.3 12.1 1.2 7.1
2002-12-23 08:06:58 51°15.284 2°54.644 5 12.3 355.6 7.2
2002-12-23 08:07:04 51°15.304 2°54.636 0.3 12.4 350.1 7.2
2002-12-23 08:07:09 51°15.321 2°54.627 355.2 12.5 345.2 7.2
2002-12-23 08:07:12 51°15.331 2°54.622 351.8 12.6 341.4 7.3
2002-12-23 08:07:18 51°15.35 2°54.61 349.8 12.5 339.1 7.7
2002-12-23 08:07:24 51°15.369 2°54.597 349.2 12.5 338.1 7.7
2002-12-23 08:07:27 51°15.379 2°54.591 349.3 12.6 338 7.6
2002-12-23 08:07:34 51°15.403 2°54.577 350 12.7 338.4 7.6
2002-12-23 08:07:38 51°15.416 2°54.569 351.5 12.9 339.5 7.7
2002-12-23 08:07:43 51°15.433 2°54.561 354.5 12.9 341.2 7.7
2002-12-23 08:07:48 51°15.45 2°54.555 357.7 12.8 345 7.7
2002-12-23 08:07:53 51°15.468 2°54.549   12.8 347.4 7.8
2002-12-23 08:07:58 51°15.485 2°54.545 2.3 12.8 350.3 7.8
2002-12-23 08:08:02 51°15.499 2°54.542 3.7 12.8 351.8 7.9
2002-12-23 08:08:08 51°15.52 2°54.538 4.7 12.7 353.1 8.1
2002-12-23 08:08:14 51°15.542 2°54.535 5.7 12.7 353.8 8
2002-12-23 08:08:18 51°15.556 2°54.532 5.2 12.8 353.8 8.1
2002-12-23 08:08:24 51°15.577 2°54.527 3.2 12.8 352.6 8.1
2002-12-23 08:08:28 51°15.591 2°54.522 0.7 13 349.8 8.2
2002-12-23 08:08:34 51°15.612 2°54.513 358.8 13.1 347.5 8.2
2002-12-23 08:08:38 51°15.626 2°54.507 356.7 13.1 345.5 8.3
2002-12-23 08:08:43 51°15.644 2°54.499 355 13 344 8.3
2002-12-23 08:08:48 51°15.661 2°54.49 353.5 12.9 342.5 8.4
2002-12-23 08:08:54 51°15.681 2°54.479 352.7 13 341.5 8.4
2002-12-23 08:08:58 51°15.695 2°54.472 353.8 12.9 341.7 8.5
2002-12-23 08:09:04 51°15.715 2°54.463 356.3 12.9 343.3 8.6
2002-12-23 08:09:09 51°15.733 2°54.459   12.8 346.8 8.7
2002-12-23 08:09:14 51°15.75 2°54.456 4.5 12.7 350.9 8.8
2002-12-23 08:09:18 51°15.764 2°54.455 8.8 12.5 355.6 8.9
2002-12-23 08:09:24 51°15.785 2°54.455 11.2 12.4 358.7 9
2002-12-23 08:09:28 51°15.798 2°54.456 13 12.2 0.7 9
2002-12-23 08:09:34 51°15.818 2°54.458 14.3 12.1 2.3 9.1
2002-12-23 08:09:38 51°15.832 2°54.459 15 12.1 3.3 9.2
2002-12-23 08:09:42 51°15.845 2°54.46 15.5 12.1 3.7 9.3
2002-12-23 08:09:48 51°15.865 2°54.463 15.5 12 4.1 9.3
2002-12-23 08:09:54 51°15.885 2°54.465 15.5 12 4.1 9.4
2002-12-23 08:09:58 51°15.898 2°54.466 15.3 11.9 3.8 9.4
2002-12-23 08:10:03 51°15.914 2°54.467 14.8 11.8 3.2 9.5
2002-12-23 08:10:07 51°15.927 2°54.468 14.7 11.8 3.1 9.5
2002-12-23 08:10:14 51°15.95 2°54.47 14.2 11.8 2.7 9.6
2002-12-23 08:10:18 51°15.963 2°54.47 14 11.8 2.3 9.6
2002-12-23 08:10:24 51°15.983 2°54.471 13.3 11.7 1.8 9.6
2002-12-23 08:10:28 51°15.996 2°54.471 12.8 11.7 1.2 9.7
2002-12-23 08:10:34 51°16.015 2°54.472 12.7 11.6 0.8 9.7
2002-12-23 08:10:38 51°16.026 2°54.472 12.7 11.2 0.5 9.7
2002-12-23 08:10:43 51°16.041 2°54.472 13.5 10.7 0.6 9.8
2002-12-23 08:10:48 51°16.055 2°54.473 15.3 10.1 1.5 9.9
2002-12-23 08:10:54 51°16.07 2°54.475 17.2 9.5 3.3 10
2002-12-23 08:10:58 51°16.079 2°54.476 18.7 8.9 4.7 10
2002-12-23 08:11:02 51°16.088 2°54.478 20.3 8.5 6.4 10.1
2002-12-23 08:11:08 51°16.101 2°54.481 21.3 8.1 7.2 10.1
2002-12-23 08:11:14 51°16.113 2°54.484 21.8 7.7 8.1 10.1
2002-12-23 08:11:18 51°16.121 2°54.485 22.3 7.3 7.7 10.2
2002-12-23 08:11:24 51°16.132 2°54.487 21.2 7 7.2 10.1
2002-12-23 08:11:28 51°16.139 2°54.487 15.8 6.5 3.6 10.2
2002-12-23 08:11:34 51°16.149 2°54.485 9 6.2 356.6 10.2
2002-12-23 08:11:38 51°16.155 2°54.482 2.2 5.9 348.4 10.2
2002-12-23 08:11:44 51°16.163 2°54.476 356 5.7 340.7 10.2
2002-12-23 08:11:48 51°16.169 2°54.471 349 5.5 333.3 10.2
2002-12-23 08:11:54 51°16.175 2°54.462 342.5 5.3 326.2 10.2
2002-12-23 08:11:58 51°16.179 2°54.456 335.5 5.2 319.9 10.3
2002-12-23 08:12:02 51°16.183 2°54.448 329.3 5.1 313.1 10.3
2002-12-23 08:12:08 51°16.188 2°54.438 322.8 5.1 307.3 10.3
2002-12-23 08:12:14 51°16.192 2°54.426 317.3 5 301.4 10.3
2002-12-23 08:12:18 51°16.194 2°54.418 311.2 5 295.1 10.4
2002-12-23 08:12:24 51°16.196 2°54.405 304.8 5 290.3 10.4
2002-12-23 08:12:28 51°16.198 2°54.396 299 5 286 10.4
2002-12-23 08:12:34 51°16.2 2°54.383 295.3 5.1 282.7 10.4
2002-12-23 08:12:38 51°16.2 2°54.374 293.8 5.1 280.8 10.5
2002-12-23 08:12:42 51°16.202 2°54.365 296 5.2 280.9 10.4
2002-12-23 08:12:48 51°16.204 2°54.351 300.3 5.1 282.3 10.5
2002-12-23 08:12:54 51°16.206 2°54.34 303.5 4.9 284.9 10.5
2002-12-23 08:12:58 51°16.207 2°54.332 305.7 4.5 285.9 10.5
2002-12-23 08:13:03 51°16.208 2°54.324 308.8 4 285.7 10.5
2002-12-23 08:13:08 51°16.209 2°54.318 314 3.4 285 10.5
2002-12-23 08:13:13 51°16.21 2°54.313 318.7 2.6 281.8 10.5
2002-12-23 08:13:18 51°16.21 2°54.309 323.2 2 272.7 10.5
2002-12-23 08:13:23 51°16.209 2°54.306 326.8 1.6 259.6 10.5
2002-12-23 08:13:27 51°16.208 2°54.304 329.5 1.5 246.9 10.5
2002-12-23 08:13:34 51°16.207 2°54.3 331.2 1.4 236 10.6
2002-12-23 08:13:38 51°16.206 2°54.298 332 1.4 232.2 10.6
2002-12-23 08:13:43 51°16.205 2°54.296 332 1.3 234.7 10.6
2002-12-23 08:13:48 51°16.204 2°54.293 332.5 1.3 244.7 10.6
2002-12-23 08:13:54 51°16.205 2°54.288 333.3 1.5 269.2 10.6
2002-12-23 08:13:58 51°16.207 2°54.285 336.3 2 291.6 10.6
2002-12-23 08:14:03 51°16.21 2°54.279 341.7 2.7 307.6 10.6
2002-12-23 08:14:08 51°16.214 2°54.274 348.8 3.5 318.5 10.6
2002-12-23 08:14:13 51°16.22 2°54.27 356.3 4.1 328.5 10.5
2002-12-23 08:14:18 51°16.225 2°54.267 3.5 4.3 337 10.6
2002-12-23 08:14:22 51°16.23 2°54.266 8.8 4.2 343.6 10.6
2002-12-23 08:14:28 51°16.236 2°54.264 13.3 3.9 348.4 10.7
2002-12-23 08:14:34 51°16.242 2°54.263 16.8 3.7 351.9 10.6
2002-12-23 08:14:38 51°16.245 2°54.263 20.3 3.5 355.1 10.6
2002-12-23 08:14:43 51°16.25 2°54.263 23.3 3.3 358.1 10.6
2002-12-23 08:14:48 51°16.254 2°54.263 26.5 3.1 359.9 10.7
2002-12-23 08:14:54 51°16.259 2°54.264 29.3 2.8 2.9 10.6
2002-12-23 08:14:58 51°16.261 2°54.264 31.2 2.4 1.6 10.6
2002-12-23 08:15:03 51°16.262 2°54.263 33.8 1.7 356.2 10.6
2002-12-23 08:15:08 51°16.263 2°54.262 37.2 1.1 334.9 10.7
2002-12-23 08:15:14 51°16.264 2°54.259 39.5 0.9 301.1 10.7
2002-12-23 08:15:18 51°16.264 2°54.258 41 0.9 284 10.7
2002-12-23 08:15:22 51°16.264 2°54.256 42.7 0.9 283.6 10.7
2002-12-23 08:15:28 51°16.264 2°54.254 44.2 0.8 285.1 10.7
2002-12-23 08:15:34 51°16.264 2°54.252 45.2 0.7 286 10.6
2002-12-23 08:15:38 51°16.265 2°54.251 46.2 0.7 288.3 10.7
2002-12-23 08:15:43 51°16.265 2°54.249 47.2 0.7 288.2 10.7
2002-12-23 08:15:48 51°16.265 2°54.248 47.5 0.7 288.6 10.7
2002-12-23 08:15:54 51°16.266 2°54.246 48.5 0.7 289 10.7
2002-12-23 08:15:58 51°16.266 2°54.245 49.7 0.6 288.4 10.7
2002-12-23 08:16:02 51°16.266 2°54.244 50.2 0.6 291.7 10.7
2002-12-23 08:16:08 51°16.266 2°54.242 51.2 0.6 288.8 10.7
2002-12-23 08:16:14 51°16.267 2°54.241 52.2 0.6 292.8 10.7
2002-12-23 08:16:18 51°16.267 2°54.24 53 0.5 294.8 10.7
2002-12-23 08:16:23 51°16.267 2°54.239 54 0.5 299.7 10.7
2002-12-23 08:16:28 51°16.268 2°54.238 55 0.4 302 10.7
2002-12-23 08:16:34 51°16.268 2°54.238 56.2 0.4 307.4 10.7
2002-12-23 08:16:38 51°16.269 2°54.237 57.3 0.4 313.6 10.7
2002-12-23 08:16:44 51°16.269 2°54.236 58.5 0.3 316.6 10.7
2002-12-23 08:16:48 51°16.269 2°54.236 59.7 0.3 324.8 10.6
2002-12-23 08:16:53 51°16.269 2°54.236 61 0.3 327.8 10.7
2002-12-23 08:16:58 51°16.269 2°54.235 62.2 0.3 330 10.7
2002-12-23 08:17:02 51°16.27 2°54.235 63.3 0.3 330.2 10.7
2002-12-23 08:17:06 51°16.27 2°54.235 64.2 0.2 326.2 10.7
2002-12-23 08:17:14 51°16.27 2°54.234 65 0.2 322.7 10.6
2002-12-23 08:17:18 51°16.271 2°54.234 65.8 0.2 312 10.7
2002-12-23 08:17:24 51°16.27 2°54.234 66.7 0.2 304.3 10.6
2002-12-23 08:17:29 51°16.27 2°54.234 66.8 0.1 295.9 10.7
2002-12-23 08:17:34 51°16.27 2°54.233 67.7 0.2 292.3 10.7
2002-12-23 08:17:38 51°16.27 2°54.233 68.2 0.2 274.5 10.7
2002-12-23 08:17:42 51°16.271 2°54.233 69 0.2 272.6 10.7
2002-12-23 08:17:48 51°16.271 2°54.232 69.5 0.2 267 10.7
2002-12-23 08:17:54 51°16.271 2°54.232 70 0.2 256 10.7
2002-12-23 08:17:58 51°16.27 2°54.231 70.5 0.2 250.8 10.6
2002-12-23 08:18:02 51°16.27 2°54.231 71.2 0.2 252.4 10.7
2002-12-23 08:18:08 51°16.271 2°54.231 71.7 0.2 245.3 10.6
2002-12-23 08:18:14 51°16.271 2°54.23 72 0.2 245.2 10.7
2002-12-23 08:18:19 51°16.271 2°54.23 72.3 0.2 245 10.6
2002-12-23 08:18:22 51°16.271 2°54.229 73 0.3 248 10.7
2002-12-23 08:18:28 51°16.27 2°54.229 73.7 0.3 242.5 10.6
2002-12-23 08:18:34 51°16.27 2°54.228 74 0.3 242.7 10.7
2002-12-23 08:18:38 51°16.27 2°54.228 75 0.3 237.9 10.7
2002-12-23 08:18:44 51°16.27 2°54.227 75.3 0.2 235.3 10.6
2002-12-23 08:18:48 51°16.27 2°54.227 75.8 0.2 227.2 10.6
2002-12-23 08:18:54 51°16.269 2°54.226 76.7 0.2 231.3 10.7
2002-12-23 08:18:58 51°16.269 2°54.226 77.3 0.2 221.4 10.7
2002-12-23 08:19:04 51°16.269 2°54.225 77.8 0.2 225.5 10.6
2002-12-23 08:19:08 51°16.268 2°54.225 78.5 0.3 213.9 10.7
2002-12-23 08:19:14 51°16.268 2°54.225 79 0.2 218.4 10.7
2002-12-23 08:19:18 51°16.268 2°54.225 79.5 0.2 212 10.7
2002-12-23 08:19:23 51°16.268 2°54.224 80.2 0.2 211.2 10.7
2002-12-23 08:19:28 51°16.267 2°54.224 80.8 0.3 205.8 10.7
2002-12-23 08:19:34 51°16.267 2°54.224 81.2 0.3 209.1 10.6
2002-12-23 08:19:38 51°16.267 2°54.224 81.8 0.3 205 10.7
2002-12-23 08:19:43 51°16.266 2°54.223 82.2 0.3 202.4 10.7
2002-12-23 08:19:48 51°16.266 2°54.223 83 0.3 200.5 10.6
2002-12-23 08:19:54 51°16.266 2°54.223 83.7 0.3 201.3 10.6
2002-12-23 08:19:58 51°16.265 2°54.223 84 0.3 196.1 10.6
2002-12-23 08:20:02 51°16.265 2°54.223 84.8 0.3 194.2 10.6
2002-12-23 08:20:08 51°16.265 2°54.222 85.2 0.3 193.4 10.6
2002-12-23 08:20:14 51°16.264 2°54.222 85.7 0.4 188.8 10.7
2002-12-23 08:20:18 51°16.264 2°54.222 86.3 0.3 191.9 10.7
2002-12-23 08:20:23 51°16.263 2°54.222 86.8 0.3 188.9 10.7
2002-12-23 08:20:28 51°16.263 2°54.222 87.3 0.3 190 10.7
2002-12-23 08:20:33 51°16.262 2°54.222 87.8 0.4 187.6 10.6
2002-12-23 08:20:38 51°16.262 2°54.222 88.2 0.3 182.3 10.7
2002-12-23 08:20:43 51°16.262 2°54.222 88.8 0.4 184.6 10.6
2002-12-23 08:20:49 51°16.261 2°54.222 89.2 0.3 185.5 10.6
2002-12-23 08:20:54 51°16.261 2°54.222 89.5 0.3 185.3 10.6
2002-12-23 08:20:58 51°16.26 2°54.222 90 0.3 185.1 10.6
2002-12-23 08:21:04 51°16.26 2°54.221 90.3 0.4 184.6 10.7
2002-12-23 08:21:08 51°16.259 2°54.221 90.8 0.4 186.2 10.7
2002-12-23 08:21:14 51°16.258 2°54.221 91.2 0.4 185 10.6
2002-12-23 08:21:18 51°16.258 2°54.221 91.7 0.4 184.1 10.7
2002-12-23 08:21:24 51°16.257 2°54.221 92 0.4 184.7 10.6
2002-12-23 08:21:28 51°16.257 2°54.221 92.2 0.4 184.8 10.6
2002-12-23 08:21:34 51°16.256 2°54.22 93 0.4 185.4 10.6
2002-12-23 08:21:38 51°16.255 2°54.22 93.2 0.4 183.5 10.6
2002-12-23 08:21:44 51°16.255 2°54.22 93.7 0.4 183.1 10.6
2002-12-23 08:21:48 51°16.255 2°54.22 93.7 0.4 182.8 10.6
2002-12-23 08:21:54 51°16.254 2°54.22 94.2 0.5 181.7 10.6
2002-12-23 08:21:58 51°16.253 2°54.22 94.2 0.4 181 10.6
2002-12-23 08:22:04 51°16.252 2°54.22 94.3 0.5 180.4 10.6
2002-12-23 08:22:08 51°16.252 2°54.22 94.5 0.4 181.8 10.6
2002-12-23 08:22:14 51°16.251 2°54.22 94.3 0.5 183.2 10.6
2002-12-23 08:22:18 51°16.251 2°54.221 94.3 0.5 182.6 10.6
2002-12-23 08:22:24 51°16.251 2°54.221 94.2 0.4 182.9 10.6
2002-12-23 08:22:29 51°16.25 2°54.221 93.7 0.4 182 10.6
2002-12-23 08:22:34 51°16.25 2°54.221 93.7 0.4 182.5 10.6
2002-12-23 08:22:38 51°16.249 2°54.221 93.3 0.5 181.9 10.6
2002-12-23 08:22:42 51°16.249 2°54.221 93 0.4 181.6 10.7
2002-12-23 08:22:48 51°16.248 2°54.221 92.5 0.4 182.3 10.6
2002-12-23 08:22:54 51°16.247 2°54.221 92.5 0.4 183.2 10.6
2002-12-23 08:22:58 51°16.247 2°54.22 92.2 0.4 181.6 10.6
2002-12-23 08:23:04 51°16.246 2°54.22 91.7 0.4 180.6 10.6
2002-12-23 08:23:08 51°16.245 2°54.22 91.3 0.5 180.5 10.6
2002-12-23 08:23:14 51°16.245 2°54.219 90.8 0.4 181.7 10.6
2002-12-23 08:23:18 51°16.244 2°54.219 90.5 0.4 183.6 10.6
2002-12-23 08:23:22 51°16.244 2°54.219 90 0.4 185 10.6
2002-12-23 08:23:28 51°16.243 2°54.219 89.3 0.4 182 10.6
2002-12-23 08:23:34 51°16.242 2°54.219 89 0.4 182.9 10.6
2002-12-23 08:23:38 51°16.242 2°54.219 88.3 0.4 182.3 10.6
2002-12-23 08:23:44 51°16.242 2°54.219 88 0.4 183 10.6
2002-12-23 08:23:48 51°16.241 2°54.219 87.7 0.3 183.8 10.6
2002-12-23 08:23:54 51°16.24 2°54.219 87 0.3 181.6 10.6
2002-12-23 08:23:58 51°16.24 2°54.218 86.5 0.3 184.3 10.6
2002-12-23 08:24:04 51°16.239 2°54.218 86.2 0.3 188.8 10.6
2002-12-23 08:24:08 51°16.239 2°54.218 85.3 0.3 182.6 10.6
2002-12-23 08:24:14 51°16.238 2°54.217 85.2 0.3 185.8 10.6
2002-12-23 08:24:18 51°16.238 2°54.217 84.7 0.3 184.8 10.6
2002-12-23 08:24:23 51°16.238 2°54.217 84.2 0.2 186.5 10.6
2002-12-23 08:24:28 51°16.237 2°54.218 84.2 0.3 184 10.6
2002-12-23 08:24:34 51°16.237 2°54.218 83.8 0.2 185 10.6
2002-12-23 08:24:38 51°16.237 2°54.218 83.5 0.2 186.1 10.6
2002-12-23 08:24:43 51°16.237 2°54.218 83.2 0.2 189.8 10.6
2002-12-23 08:24:48 51°16.237 2°54.218 82.8 0.2 190.8 10.6
2002-12-23 08:24:54 51°16.236 2°54.218 82.2 0.3 189.9 10.6
2002-12-23 08:24:58 51°16.236 2°54.218 81.3 0.2 199.6 10.6
2002-12-23 08:25:02 51°16.236 2°54.217 80.3 0.1 183.3 10.6
2002-12-23 08:25:08 51°16.236 2°54.219 78.2 0.3 89 10.6
2002-12-23 08:25:14 51°16.237 2°54.222 74 0.9 72.7 10.6
2002-12-23 08:25:18 51°16.238 2°54.225 67.7 1.5 62 10.6
2002-12-23 08:25:23 51°16.24 2°54.229 60.8 2.1 53.6 10.6
2002-12-23 08:25:28 51°16.243 2°54.233 52.7 2.6 44 10.6
2002-12-23 08:25:33 51°16.247 2°54.236 44.8 3 35.9 10.6
2002-12-23 08:25:38 51°16.252 2°54.239 36.8 3.5 24.5 10.6
2002-12-23 08:25:43 51°16.258 2°54.241 29.2 3.9 15.6 10.6
2002-12-23 08:25:49 51°16.265 2°54.241 21.5 4.3 7 10.6
2002-12-23 08:25:54 51°16.272 2°54.239 14 4.7 358.7 10.6
2002-12-23 08:25:58 51°16.278 2°54.237 6.2 5.1 350.7 10.6
2002-12-23 08:26:04 51°16.286 2°54.231 358.7 5.4 342.8 10.6
2002-12-23 08:26:08 51°16.292 2°54.226 350.7 5.8 334.9 10.6
2002-12-23 08:26:14 51°16.301 2°54.216 342.7 6.2 327.6 10.6
2002-12-23 08:26:18 51°16.306 2°54.207 334 6.7 320.1 10.6
2002-12-23 08:26:24 51°16.314 2°54.191 325 7.2 312.8 10.3
2002-12-23 08:26:28 51°16.319 2°54.179 317.5 7.8 305.5 10.6
2002-12-23 08:26:34 51°16.326 2°54.158 312 8.4 301 10.6
2002-12-23 08:26:38 51°16.331 2°54.143 308.8 9 298.1 10.6
2002-12-23 08:26:44 51°16.338 2°54.119 308.7 9.7 296.7 10.6
2002-12-23 08:26:48 51°16.345 2°54.103 311.3 10.4 298.1 10.6
2002-12-23 08:26:54 51°16.355 2°54.077 314.8 11 300.6 10.7
2002-12-23 08:26:58 51°16.362 2°54.061 316.2 11.4 303.5 10.7
2002-12-23 08:27:04 51°16.373 2°54.033 313.8 11.8 303.6 10.7
2002-12-23 08:27:08 51°16.38 2°54.015 312.7 12.2 301.9 10.7
2002-12-23 08:27:14 51°16.392 2°53.986 312.8 12.5 302.2 10.7
2002-12-23 08:27:18 51°16.4 2°53.967 313.3 12.7 302.3 10.7
2002-12-23 08:27:23 51°16.41 2°53.943 314.5 12.9 303.3 10.5
2002-12-23 08:27:28 51°16.42 2°53.919 315.8 13 304.3 10.7
2002-12-23 08:27:34 51°16.433 2°53.891 316.7 13.1 305.5 10.8
2002-12-23 08:27:38 51°16.442 2°53.873 317.7 13.1 306.4 10.8
2002-12-23 08:27:42 51°16.451 2°53.854 318.7 13.2 307.2 10.7
2002-12-23 08:27:48 51°16.464 2°53.827 320.2 13.2 308.4 10.8
2002-12-23 08:27:53 51°16.476 2°53.805 321.3 13.2 309.7 10.7
2002-12-23 08:27:58 51°16.488 2°53.783 322.7 13.2 311 10.7
2002-12-23 08:28:04 51°16.503 2°53.757 323.5 13.2 311.9 10.8
2002-12-23 08:28:08 51°16.513 2°53.74 324 13.2 312.6 10.8
2002-12-23 08:28:14 51°16.528 2°53.715 324.5 13.2 313.1 10.8
2002-12-23 08:28:18 51°16.538 2°53.698 325 13.2 313.6 10.8
2002-12-23 08:28:23 51°16.551 2°53.676 325 13.2 313.9 10.7
2002-12-23 08:28:28 51°16.563 2°53.656 325 13.2 314 10.7
2002-12-23 08:28:34 51°16.578 2°53.631 325 13.2 313.9 10.8
2002-12-23 08:28:38 51°16.589 2°53.614 324.8 13.1 313.9 10.7
2002-12-23 08:28:43 51°16.602 2°53.593 325.2 13.1 314.1 10.7
2002-12-23 08:28:48 51°16.614 2°53.572 324.8 13.1 314.2 10.6
2002-12-23 08:28:54 51°16.629 2°53.547 324.7 13.1 314.2 10.6
2002-12-23 08:28:58 51°16.639 2°53.531 324.8 13.1 314.3 10.5
2002-12-23 08:29:03 51°16.652 2°53.51 324.8 13.1 314.3 10.5
2002-12-23 08:29:08 51°16.665 2°53.489 324.7 13.1 314.3 10.5
2002-12-23 08:29:14 51°16.68 2°53.464 324.8 13.1 314.3 10.4
2002-12-23 08:29:18 51°16.69 2°53.448 324.7 13.1 314.3 10.3
2002-12-23 08:29:22 51°16.7 2°53.432 325 13.1 314.5 10.3
2002-12-23 08:29:28 51°16.716 2°53.407 324.7 13.1 314.5 10.2
2002-12-23 08:29:32 51°16.726 2°53.39 324.7 13.1 314.5 10.2
2002-12-23 08:29:38 51°16.741 2°53.366 324.8 13 314.5 10.1
2002-12-23 08:29:44 51°16.756 2°53.341 324.7 13 314.7 10
2002-12-23 08:29:48 51°16.766 2°53.325 324.8 13 314.6 10
2002-12-23 08:29:54 51°16.781 2°53.3 324.7 13 314.7 9.9
2002-12-23 08:29:58 51°16.791 2°53.284 324.3 13 314.6 9.9
2002-12-23 08:30:04 51°16.806 2°53.259 324.5 12.9 314.5 9.6
2002-12-23 08:30:08 51°16.816 2°53.243 324 12.9 314.3 9.6
2002-12-23 08:30:14 51°16.831 2°53.218 323.7 12.9 313.9 9.4
2002-12-23 08:30:18 51°16.841 2°53.201 323.7 12.9 313.7 8.7
2002-12-23 08:30:23 51°16.853 2°53.181 323.5 12.9 313.5 8.1
2002-12-23 08:30:28 51°16.865 2°53.16 323.5 12.8 313.6 7.5
2002-12-23 08:30:34 51°16.88 2°53.136 323.5 12.7 313.6 7.2
2002-12-23 08:30:38 51°16.889 2°53.121 323.3 12.4 313.9 7.1
2002-12-23 08:30:43 51°16.901 2°53.102 323.5 12.2 313.8 7
2002-12-23 08:30:48 51°16.912 2°53.083 323.3 12 313.9 6.9
2002-12-23 08:30:54 51°16.926 2°53.06 322.7 12 313.4 7
2002-12-23 08:30:58 51°16.935 2°53.044 322.5 12 312.9 6.9
2002-12-23 08:31:02 51°16.944 2°53.028 322.7 12.1 312.9 7
2002-12-23 08:31:08 51°16.958 2°53.004 322.3 12.2 312.8 7
2002-12-23 08:31:14 51°16.972 2°52.98 322 12.2 312.4 7
2002-12-23 08:31:18 51°16.981 2°52.964 321.3 12.3 311.7 7.1
2002-12-23 08:31:23 51°16.992 2°52.943 320.5 12.3 311 7.4
2002-12-23 08:31:28 51°17.003 2°52.922 320.2 12.4 310.5 7.5
2002-12-23 08:31:34 51°17.017 2°52.896 320 12.5 310.4 7.8
2002-12-23 08:31:38 51°17.026 2°52.879 320.8 12.7 310.8 8
2002-12-23 08:31:43 51°17.038 2°52.858 322.3 12.8 312.1 8.4
2002-12-23 08:31:48 51°17.051 2°52.838 324.2 12.9 313.7 8.4
2002-12-23 08:31:53 51°17.064 2°52.818 325.5 13 315 8.6
2002-12-23 08:31:58 51°17.077 2°52.799 327.2 13 316.7 8.6
2002-12-23 08:32:03 51°17.091 2°52.779 328.7 13.1 318.3 8.8
2002-12-23 08:32:08 51°17.105 2°52.761 329.7 13.1 319.4 8.8
2002-12-23 08:32:14 51°17.122 2°52.739 330.2 13.1 320.2 8.7
2002-12-23 08:32:18 51°17.133 2°52.724 330.3 13 320.4 8.4
2002-12-23 08:32:24 51°17.149 2°52.702 330 12.9 320.2 8.1
2002-12-23 08:32:28 51°17.16 2°52.687 329.5 12.8 319.8 8.4
2002-12-23 08:32:34 51°17.176 2°52.665 329.2 12.7 319.4 8.3
2002-12-23 08:32:38 51°17.186 2°52.65 328.7 12.7 319 8.3
2002-12-23 08:32:44 51°17.202 2°52.628 328.5 12.7 318.8 8.3
2002-12-23 08:32:48 51°17.213 2°52.613 328.3 12.7 318.5 8.3
2002-12-23 08:32:52 51°17.223 2°52.598 328 12.7 318.2 8.4
2002-12-23 08:32:58 51°17.239 2°52.575 327.7 12.7 317.8 8.4
2002-12-23 08:33:03 51°17.252 2°52.556 327.5 12.8 317.6 8.6
2002-12-23 08:33:08 51°17.265 2°52.537 327.7 12.8 317.6 8.6
2002-12-23 08:33:14 51°17.281 2°52.514 327.5 12.8 317.6 8.7
2002-12-23 08:33:22 51°17.302 2°52.483 327.2 12.8 317.6 8.8
2002-12-23 08:33:27 51°17.315 2°52.464 327 12.8 317.2 8.9
2002-12-23 08:33:32 51°17.328 2°52.445 326.5 12.9 317 9
2002-12-23 08:33:38 51°17.344 2°52.421 326 12.9 316.5 8.9
2002-12-23 08:33:42 51°17.354 2°52.405 325.5 12.9 315.9 8.9
2002-12-23 08:33:46 51°17.364 2°52.388 325.2 12.9 315.4 8.9
2002-12-23 08:33:52 51°17.379 2°52.364 325.2 12.9 315.1 9
2002-12-23 08:33:58 51°17.394 2°52.34 325 12.9 314.9 8.9
2002-12-23 08:34:02 51°17.404 2°52.323 324.7 12.9 314.8 9
2002-12-23 08:34:07 51°17.417 2°52.303 324.8 12.9 314.8 9
2002-12-23 08:34:12 51°17.429 2°52.283 325 12.9 315 9.1
2002-12-23 08:34:18 51°17.444 2°52.258 324.8 12.8 315.1 9.2
2002-12-23 08:34:22 51°17.454 2°52.242 325.2 12.8 315.1 9.2
2002-12-23 08:34:26 51°17.465 2°52.226 325.2 12.8 315 9.3
2002-12-23 08:34:32 51°17.48 2°52.203 325.3 12.8 315.2 9.2
2002-12-23 08:34:37 51°17.492 2°52.182 325 12.8 315.1 9.2
2002-12-23 08:34:42 51°17.505 2°52.162 325 12.8 315.1 9.1
2002-12-23 08:34:47 51°17.517 2°52.143 325.2 12.8 315.2 9.2
2002-12-23 08:34:52 51°17.53 2°52.122 325.2 12.8 315.1 9.1
2002-12-23 08:34:58 51°17.545 2°52.099 325.3 12.8 315.2 9.1
2002-12-23 08:35:02 51°17.555 2°52.083 324.8 12.8 315.1 9.2
2002-12-23 08:35:06 51°17.565 2°52.067 325.2 12.8 315.1 9.1
2002-12-23 08:35:12 51°17.58 2°52.043 325.3 12.7 315.3 9.1
2002-12-23 08:35:17 51°17.593 2°52.023 325.3 12.7 315.5 9.2
2002-12-23 08:35:22 51°17.606 2°52.003 325.5 12.7 315.6 9.1
2002-12-23 08:35:27 51°17.618 2°51.984 325.5 12.7 315.7 9.1
2002-12-23 08:35:33 51°17.634 2°51.96 325.3 12.7 315.7 9.1
2002-12-23 08:35:36 51°17.641 2°51.948 325.2 12.7 315.5 9.2
2002-12-23 08:35:43 51°17.659 2°51.92 325 12.7 315.3 9
2002-12-23 08:35:47 51°17.668 2°51.905 324.8 12.7 315.1 9
2002-12-23 08:35:53 51°17.683 2°51.881 324.7 12.7 314.9 8.9
2002-12-23 08:35:58 51°17.696 2°51.861 324.7 12.7 314.9 9
2002-12-23 08:36:03 51°17.708 2°51.841 324.7 12.7 315 8.9
2002-12-23 08:36:07 51°17.718 2°51.825 325.2 12.7 315 8.9
2002-12-23 08:36:12 51°17.731 2°51.805 325.5 12.7 315.2 9
2002-12-23 08:36:16 51°17.741 2°51.789 325.7 12.7 315.7 8.8
2002-12-23 08:36:22 51°17.756 2°51.766 326.2 12.7 315.9 9
2002-12-23 08:36:27 51°17.769 2°51.747 326.3 12.7 316.5 8.9
2002-12-23 08:36:32 51°17.781 2°51.728 326.3 12.7 316.4 9
2002-12-23 08:36:38 51°17.797 2°51.705 326.3 12.7 316.5 8.9
2002-12-23 08:36:43 51°17.809 2°51.685 326 12.7 316.3 8.9
2002-12-23 08:36:47 51°17.82 2°51.669 326 12.7 316.2 8.9
2002-12-23 08:36:53 51°17.835 2°51.646 325.7 12.7 315.9 8.9
2002-12-23 08:36:58 51°17.847 2°51.626 325.3 12.7 315.7 9
2002-12-23 08:37:02 51°17.857 2°51.61 325.3 12.7 315.5 9.1
2002-12-23 08:37:07 51°17.87 2°51.59 325.3 12.7 315.5 9.1
2002-12-23 08:37:12 51°17.883 2°51.57 325.5 12.8 315.6 9.1
2002-12-23 08:37:18 51°17.898 2°51.547 326.2 12.8 316.1 9.2
2002-12-23 08:37:22 51°17.909 2°51.531 326.8 12.8 316.7 9.3
2002-12-23 08:37:27 51°17.922 2°51.512 327 12.8 317.1 9.3
2002-12-23 08:37:32 51°17.935 2°51.493 327.5 12.8 317.4 9.2
2002-12-23 08:37:38 51°17.951 2°51.471 328.2 12.8 317.9 9.4
2002-12-23 08:37:42 51°17.961 2°51.456 328.3 12.7 318.4 9.5
2002-12-23 08:37:46 51°17.972 2°51.441 328.5 12.7 318.5 9.5
2002-12-23 08:37:53 51°17.991 2°51.415 329 12.8 318.9 9.7
2002-12-23 08:37:58 51°18.004 2°51.396 329.5 12.8 319.3 9.7
2002-12-23 08:38:02 51°18.015 2°51.382 329.5 12.8 319.7 9.9
2002-12-23 08:38:08 51°18.031 2°51.36 329.7 12.8 319.7 10
2002-12-23 08:38:12 51°18.042 2°51.346 329.8 12.8 319.8 10.1
2002-12-23 08:38:18 51°18.059 2°51.324 329.5 12.8 319.6 10.2
2002-12-23 08:38:22 51°18.07 2°51.309 329.7 12.8 319.7 10.3
2002-12-23 08:38:27 51°18.083 2°51.291 329.5 12.8 319.5 10.5
2002-12-23 08:38:32 51°18.097 2°51.272 329.5 12.8 319.6 10.7
2002-12-23 08:38:38 51°18.113 2°51.25 329.5 12.8 319.4 10.5
2002-12-23 08:38:43 51°18.126 2°51.231 329.2 12.9 319.1 10.9
2002-12-23 08:38:47 51°18.137 2°51.216 328.8 12.9 318.8 11
2002-12-23 08:38:52 51°18.15 2°51.197 328.3 12.9 318.4 11.1
2002-12-23 08:38:58 51°18.166 2°51.175 328.8 12.9 318.4 11.1
2002-12-23 08:39:02 51°18.177 2°51.16 329.5 12.8 319 11.1
2002-12-23 08:39:06 51°18.188 2°51.145 330.2 12.8 319.7 11.3
2002-12-23 08:39:13 51°18.207 2°51.121 331 12.7 320.5 11.4
2002-12-23 08:39:18 51°18.22 2°51.105 331.8 12.2 321 11.5
2002-12-23 08:39:22 51°18.229 2°51.093 333.3 11.6 321.8 11.5
2002-12-23 08:39:27 51°18.241 2°51.079 334.7 10.9 322.7 11.7
2002-12-23 08:39:33 51°18.255 2°51.063 336 10.3 323.9 11.8
2002-12-23 08:39:36 51°18.261 2°51.056 337.5 9.7 325 12
2002-12-23 08:39:43 51°18.276 2°51.041 339.2 9.3 326.2 11.9
2002-12-23 08:39:47 51°18.284 2°51.033 340.5 8.8 327.4 12
2002-12-23 08:39:52 51°18.294 2°51.024 342 8.4 328.7 12
2002-12-23 08:39:58 51°18.305 2°51.014 344.8 8.1 330.2 12.1
2002-12-23 08:40:02 51°18.313 2°51.009 348.5 7.7 333.1 12.3
2002-12-23 08:40:07 51°18.322 2°51.003 352.2 7.4 336.2 12.2
2002-12-23 08:40:12 51°18.331 2°50.998 355.8 7.1 339.6 12.3
2002-12-23 08:40:17 51°18.34 2°50.994 359.3 6.8 343.1 12.3
2002-12-23 08:40:22 51°18.349 2°50.991 2.5 6.5 346.4 12.2
2002-12-23 08:40:27 51°18.357 2°50.989 5.5 6.3 349 12.3
2002-12-23 08:40:32 51°18.365 2°50.987 7.7 6 351.5 12.3
2002-12-23 08:40:38 51°18.374 2°50.985 8.8 5.8 353.1 12.4
2002-12-23 08:40:42 51°18.381 2°50.984 9 5.7 354 12.4
2002-12-23 08:40:46 51°18.387 2°50.983 8.8 5.6 354 12.4
2002-12-23 08:40:53 51°18.397 2°50.981 8.7 5.6 353.7 12.5
2002-12-23 08:40:58 51°18.405 2°50.98 8.3 5.5 353.4 12.5
2002-12-23 08:41:02 51°18.411 2°50.979 8 5.4 352.9 12.5
2002-12-23 08:41:07 51°18.418 2°50.977 7.3 5.4 352.1 12.5
2002-12-23 08:41:13 51°18.426 2°50.974 6.5 5.2 351.1 12.5
2002-12-23 08:41:18 51°18.433 2°50.973 6.2 4.9 350 12
2002-12-23 08:41:22 51°18.438 2°50.971 6.3 4.6 349.3 12.5
2002-12-23 08:41:27 51°18.444 2°50.969 6.8 4.4 349.2 12.7
2002-12-23 08:41:32 51°18.449 2°50.967 8 4.1 348.7 12.7
2002-12-23 08:41:37 51°18.454 2°50.966 9 3.9 349.3 12.6
2002-12-23 08:41:43 51°18.46 2°50.964 9.5 3.7 349.1 12.7
2002-12-23 08:41:47 51°18.463 2°50.963 11.3 3.3 348.9 12.8
2002-12-23 08:41:53 51°18.467 2°50.962 14.5 2.8 349 12.8
2002-12-23 08:41:58 51°18.47 2°50.961 19.8 2.2 347.5 12.8
2002-12-23 08:42:02 51°18.471 2°50.96 25.7 1.6 346.7 12.8
2002-12-23 08:42:08 51°18.473 2°50.959 30.7 1.3 343.5 12.8
2002-12-23 08:42:12 51°18.474 2°50.959 34.7 1 343.5 12.7
2002-12-23 08:42:18 51°18.475 2°50.958 38.5 0.9 343.8 12.7
2002-12-23 08:42:22 51°18.476 2°50.958 41.7 0.8 347.2 12.7
2002-12-23 08:42:27 51°18.477 2°50.958 44.2 0.8 348.4 12.8
2002-12-23 08:42:32 51°18.478 2°50.958 46.2 0.7 354.3 12.8
2002-12-23 08:42:38 51°18.479 2°50.958 47.7 0.7 354.8 12.9
2002-12-23 08:42:43 51°18.48 2°50.958 48.7 0.6 0.9 12.9
2002-12-23 08:42:47 51°18.48 2°50.958 49.5 0.6 0.1 12.8
2002-12-23 08:42:52 51°18.481 2°50.958 50.3 0.6 5 12.6
2002-12-23 08:42:58 51°18.482 2°50.958 50.8 0.6 4.4 12.8
2002-12-23 08:43:02 51°18.483 2°50.958 51.2 0.6 6.5 12.9
2002-12-23 08:43:06 51°18.483 2°50.958 51.5 0.5 7.3 12.8
2002-12-23 08:43:13 51°18.484 2°50.958 52 0.5 9.1 12.8
2002-12-23 08:43:18 51°18.485 2°50.959 52.7 0.5 13 12.8
2002-12-23 08:43:22 51°18.486 2°50.959 52.8 0.5 18.8 12.7
2002-12-23 08:43:27 51°18.486 2°50.96 52.8 0.5 21 12.8
2002-12-23 08:43:33 51°18.487 2°50.96 53.2 0.5 23.8 12.8
2002-12-23 08:43:36 51°18.487 2°50.96 53.7 0.5 25.1 12.8
2002-12-23 08:43:43 51°18.488 2°50.961 54.2 0.5 25.3 12.8
2002-12-23 08:43:47 51°18.489 2°50.961 54.3 0.5 27.2 12.8
2002-12-23 08:43:52 51°18.489 2°50.961 54.5 0.5 25.5 12.2
2002-12-23 08:43:58 51°18.49 2°50.962 54.7 0.5 30.3 12.7
2002-12-23 08:44:02 51°18.49 2°50.962 55 0.5 28.1 12.8
2002-12-23 08:44:07 51°18.491 2°50.963 55.2 0.5 26.9 12.8
2002-12-23 08:44:13 51°18.492 2°50.964 54.8 0.5 28.9 12.8
2002-12-23 08:44:18 51°18.492 2°50.964 54.7 0.5 22.2 12.8
2002-12-23 08:44:22 51°18.493 2°50.965 54.7 0.5 31.5 12.8
2002-12-23 08:44:27 51°18.493 2°50.965 54.5 0.5 28.3 12.7
2002-12-23 08:44:32 51°18.494 2°50.966 54.2 0.5 30.8 12.7
2002-12-23 08:44:37 51°18.495 2°50.966 54.2 0.5 28.9 12.7
2002-12-23 08:44:42 51°18.495 2°50.967 54.3 0.5 29.4 12.8
2002-12-23 08:44:47 51°18.496 2°50.967 54.2 0.5 30.8 12.8
2002-12-23 08:44:53 51°18.497 2°50.968 54.2 0.5 27.5 12.8
2002-12-23 08:44:57 51°18.497 2°50.968 54.3 0.5 35.4 12.9
2002-12-23 08:45:02 51°18.498 2°50.969 53.8 0.5 28.9 12.9
2002-12-23 08:45:08 51°18.498 2°50.969 53.5 0.6 28.7 12.9
2002-12-23 08:45:12 51°18.499 2°50.97 53.7 0.6 26.4 12.9
2002-12-23 08:45:18 51°18.5 2°50.971 53.8 0.5 27.9 12.8
2002-12-23 08:45:22 51°18.5 2°50.971 53.8 0.6 28.6 12.8
2002-12-23 08:45:28 51°18.501 2°50.972 53.3 0.6 32.6 12.7
2002-12-23 08:45:32 51°18.502 2°50.973 53.2 0.6 31.9 12.7
2002-12-23 08:45:37 51°18.502 2°50.973 53.7 0.5 34.3 12.8
2002-12-23 08:45:42 51°18.503 2°50.974 53.8 0.5 33.8 12.9
2002-12-23 08:45:48 51°18.504 2°50.974 53.5 0.6 32 12.9
2002-12-23 08:45:52 51°18.504 2°50.975 53.5 0.6 30.3 12.8
2002-12-23 08:45:58 51°18.505 2°50.976 53.5 0.6 27.2 12.8
2002-12-23 08:46:02 51°18.506 2°50.976 53.2 0.6 26 12.8
2002-12-23 08:46:08 51°18.507 2°50.977 53.7 0.6 29.8 12.9
2002-12-23 08:46:12 51°18.507 2°50.977 53.5 0.5 23.5 12.9
2002-12-23 08:46:18 51°18.507 2°50.977 53.7 0.3 11.6 12.9
2002-12-23 08:46:22 51°18.507 2°50.977 54 0.2 337.8 12.9
2002-12-23 08:46:27 51°18.507 2°50.976 54.7 0.2 307 12.9
2002-12-23 08:46:32 51°18.507 2°50.976 55.3 0.2 299.7 12.9
2002-12-23 08:46:38 51°18.508 2°50.976 55.7 0.2 308.5 12.9
2002-12-23 08:46:42 51°18.508 2°50.976 56.2 0.1 307.4 12.9
2002-12-23 08:46:47 51°18.508 2°50.976 56.5 0.1 300.2 12.9
2002-12-23 08:46:53 51°18.508 2°50.975 56.8 0.1 287.7 12.8
2002-12-23 08:46:58 51°18.508 2°50.975 57.3 0.1 265.8 12.8
2002-12-23 08:47:02 51°18.508 2°50.974 57.7 0.2 272.6 12.9
2002-12-23 08:47:06 51°18.508 2°50.974 57.5 0.2 266.2 12.8
2002-12-23 08:47:13 51°18.508 2°50.974 58.2 0.2 258.8 12.8
2002-12-23 08:47:17 51°18.508 2°50.973 58.2 0.2 251.7 12.8
2002-12-23 08:47:22 51°18.507 2°50.973 58.5 0.2 249.6 12.7
2002-12-23 08:47:28 51°18.507 2°50.972 58.8 0.2 250.8 12.7
2002-12-23 08:47:32 51°18.507 2°50.972 59.5 0.3 238.8 12.7
2002-12-23 08:47:38 51°18.507 2°50.971 59.3 0.3 242.1 12.8
2002-12-23 08:47:42 51°18.507 2°50.97 59.7 0.3 235 12.9
2002-12-23 08:47:47 51°18.507 2°50.97 60 0.3 235.7 12.9
2002-12-23 08:47:53 51°18.506 2°50.969 60.5 0.3 230.5 12.9
2002-12-23 08:47:58 51°18.506 2°50.969 60.2 0.3 230.7 12.9
2002-12-23 08:48:02 51°18.506 2°50.968 60.5 0.3 237.9 12.9
2002-12-23 08:48:06 51°18.506 2°50.968 60.8 0.4 231.6 12.9
2002-12-23 08:48:13 51°18.506 2°50.967 61 0.4 237.8 12.7
2002-12-23 08:48:17 51°18.505 2°50.966 60.8 0.4 232.8 12.8
2002-12-23 08:48:22 51°18.505 2°50.966 60.7 0.3 237.5 12.8
2002-12-23 08:48:27 51°18.505 2°50.965 60.7 0.4 233.3 12.9
2002-12-23 08:48:32 51°18.504 2°50.964 60.7 0.4 234 12.9
2002-12-23 08:48:36 51°18.504 2°50.964 60.8 0.4 227.4 12.8
2002-12-23 08:48:42 51°18.504 2°50.963 60.8 0.4 233.4 12.8
2002-12-23 08:48:48 51°18.503 2°50.962 61.3 0.4 231.1 12.8
2002-12-23 08:48:52 51°18.503 2°50.961 61.5 0.4 231.9 12.7
2002-12-23 08:48:58 51°18.502 2°50.96 62 0.4 230 12.8
2002-12-23 08:49:02 51°18.502 2°50.959 62.2 0.4 234.1 12.8
2002-12-23 08:49:07 51°18.502 2°50.958 62 0.5 230.1 12.8
2002-12-23 08:49:12 51°18.501 2°50.958 62 0.5 233.2 12.8
2002-12-23 08:49:17 51°18.501 2°50.957 62.3 0.5 228.2 12.9
2002-12-23 08:49:22 51°18.501 2°50.955 62.5 0.5 236.5 12.9
2002-12-23 08:49:26 51°18.5 2°50.955 62.3 0.5 229.8 12.8
2002-12-23 08:49:33 51°18.499 2°50.954 62.5 0.5 235.5 12.8
2002-12-23 08:49:38 51°18.499 2°50.953 62.7 0.5 232.6 12.8
2002-12-23 08:49:42 51°18.499 2°50.952 62.8 0.5 234.3 12.8
2002-12-23 08:49:46 51°18.498 2°50.952 62.5 0.5 228.2 12.8
2002-12-23 08:49:52 51°18.498 2°50.95 62.5 0.5 236.9 12.7
2002-12-23 08:49:58 51°18.497 2°50.949 63 0.5 229.3 12.8
2002-12-23 08:50:02 51°18.497 2°50.949 63 0.5 231.4 12.9
2002-12-23 08:50:07 51°18.496 2°50.948 62.8 0.5 230.1 12.9
2002-12-23 08:50:12 51°18.496 2°50.946 63.3 0.5 237.4 12.9
2002-12-23 08:50:18 51°18.495 2°50.945 63.2 0.5 230 12.8
2002-12-23 08:50:22 51°18.495 2°50.945 63.2 0.5 233.9 12.8
2002-12-23 08:50:27 51°18.495 2°50.944 63 0.6 231.6 12.5
2002-12-23 08:50:32 51°18.494 2°50.943 63.3 0.6 233.7 12.8
2002-12-23 08:50:37 51°18.494 2°50.942 63.5 0.6 231 12.8
2002-12-23 08:50:42 51°18.493 2°50.941 63.2 0.6 229.2 12.8
2002-12-23 08:50:48 51°18.493 2°50.939 63.3 0.6 231.8 12.8
2002-12-23 08:50:52 51°18.492 2°50.939 63.7 0.6 230.6 12.8
2002-12-23 08:50:58 51°18.492 2°50.937 63.3 0.6 233.9 12.9
2002-12-23 08:51:02 51°18.491 2°50.936 63.3 0.6 233.3 12.9
2002-12-23 08:51:07 51°18.491 2°50.935 63.3 0.6 233.7 12.9
2002-12-23 08:51:13 51°18.49 2°50.934 63.5 0.6 235.2 12.8
2002-12-23 08:51:18 51°18.49 2°50.933 63.3 0.6 230.7 12.8
2002-12-23 08:51:22 51°18.489 2°50.932 63.3 0.6 229.5 12.8
2002-12-23 08:51:27 51°18.489 2°50.931 63.5 0.6 233.7 12.9
2002-12-23 08:51:32 51°18.488 2°50.93 63.7 0.6 232.4 12.8
2002-12-23 08:51:37 51°18.488 2°50.929 63.8 0.6 230.9 12.8
2002-12-23 08:51:42 51°18.487 2°50.928 63.8 0.6 231.5 12.8
2002-12-23 08:51:47 51°18.487 2°50.927 63.8 0.6 232.4 12.8
2002-12-23 08:51:52 51°18.486 2°50.925 63.7 0.6 230.3 12.8
2002-12-23 08:51:58 51°18.486 2°50.924 64 0.6 229.4 12.9
2002-12-23 08:52:02 51°18.485 2°50.923 64.2 0.6 227.2 12.9
2002-12-23 08:52:08 51°18.484 2°50.922 64.7 0.6 232.6 12.9
2002-12-23 08:52:12 51°18.484 2°50.921 64.8 0.7 225.5 12.8
2002-12-23 08:52:16 51°18.483 2°50.92 65 0.7 225 12.9
2002-12-23 08:52:22 51°18.483 2°50.919 65.2 0.7 226.8 12.8
2002-12-23 08:52:27 51°18.482 2°50.918 65.5 0.7 228.8 12.8
2002-12-23 08:52:32 51°18.481 2°50.917 65.5 0.6 229.2 12.9
2002-12-23 08:52:38 51°18.48 2°50.915 65.3 0.7 228.7 12.7
2002-12-23 08:52:43 51°18.48 2°50.914 65.7 0.7 227.4 12.8
2002-12-23 08:52:47 51°18.479 2°50.913 65.7 0.7 229.3 12.7
2002-12-23 08:52:53 51°18.478 2°50.912 65.7 0.7 227.4 12.7
2002-12-23 08:52:57 51°18.478 2°50.91 65.8 0.7 229.3 12.8
2002-12-23 08:53:02 51°18.477 2°50.909 66.3 0.7 228.3 12.8
2002-12-23 08:53:06 51°18.476 2°50.908 66.5 0.7 228.9 12.8
2002-12-23 08:53:12 51°18.475 2°50.907 66.5 0.8 228.7 12.7
2002-12-23 08:53:18 51°18.475 2°50.905 66.7 0.8 233.1 12.8
2002-12-23 08:53:23 51°18.474 2°50.904 66.5 0.8 229.3 12.8
2002-12-23 08:53:27 51°18.473 2°50.903 66.7 0.8 228.5 12.9
2002-12-23 08:53:32 51°18.473 2°50.901 66.5 0.8 228 12.8
2002-12-23 08:53:38 51°18.472 2°50.9 66.5 0.8 227.9 12.8
2002-12-23 08:53:42 51°18.471 2°50.899 66.7 0.8 227.6 12.9
2002-12-23 08:53:48 51°18.47 2°50.897 66.8 0.8 228.4 12.7
2002-12-23 08:53:52 51°18.47 2°50.896 66.7 0.8 228.2 12.8
2002-12-23 08:53:57 51°18.469 2°50.895 66.3 0.7 229.2 12.8
2002-12-23 08:54:02 51°18.468 2°50.894 66.3 0.7 231 12.6
2002-12-23 08:54:07 51°18.468 2°50.892 66.2 0.7 228.7 12.6
2002-12-23 08:54:12 51°18.467 2°50.891 66.2 0.7 227.7 12.8
2002-12-23 08:54:18 51°18.466 2°50.89 66.2 0.7 231.4 12.8
2002-12-23 08:54:22 51°18.466 2°50.889 66.2 0.7 228.1 12.8
2002-12-23 08:54:27 51°18.465 2°50.888 66 0.7 230.3 12.7
2002-12-23 08:54:32 51°18.465 2°50.887 65.8 0.7 227.9 12.8
2002-12-23 08:54:38 51°18.464 2°50.886 65.7 0.7 226.9 12.9
2002-12-23 08:54:43 51°18.464 2°50.884 66 0.7 227.2 12.8
2002-12-23 08:54:47 51°18.463 2°50.883 66.2 0.6 230 12.7
2002-12-23 08:54:52 51°18.463 2°50.882 66.3 0.7 230.6 12.8
2002-12-23 08:54:58 51°18.462 2°50.881 66.3 0.7 226.4 12.9
2002-12-23 08:55:03 51°18.461 2°50.88 66.2 0.6 226.8 12.9
2002-12-23 08:55:06 51°18.461 2°50.879 66.5 0.6 227.4 12.9
2002-12-23 08:55:13 51°18.46 2°50.878 66.7 0.6 224.8 12.8
2002-12-23 08:55:18 51°18.459 2°50.877 66.8 0.6 228.7 12.8
2002-12-23 08:55:22 51°18.459 2°50.876 67.3 0.6 228.4 12.8
2002-12-23 08:55:28 51°18.458 2°50.875 67.7 0.6 224.8 12.8
2002-12-23 08:55:32 51°18.458 2°50.874 67.7 0.6 224.7 12.8
2002-12-23 08:55:37 51°18.457 2°50.873 68.2 0.6 227.6 12.8
2002-12-23 08:55:42 51°18.456 2°50.872 68.5 0.6 225.6 12.8
2002-12-23 08:55:47 51°18.456 2°50.871 69 0.6 226 12.9
2002-12-23 08:55:53 51°18.456 2°50.87 69 0.6 222.5 12.8
2002-12-23 08:55:57 51°18.455 2°50.869 69.3 0.6 221.5 12.8
2002-12-23 08:56:02 51°18.455 2°50.868 69.2 0.6 224.4 12.8
2002-12-23 08:56:07 51°18.454 2°50.868 69.3 0.6 219.2 12.8
2002-12-23 08:56:13 51°18.453 2°50.866 69.8 0.6 225.7 12.8
2002-12-23 08:56:17 51°18.453 2°50.865 69.8 0.6 222 12.8
2002-12-23 08:56:22 51°18.452 2°50.865 70.3 0.6 222.2 12.7
2002-12-23 08:56:28 51°18.451 2°50.864 70.5 0.5 222 12.8
2002-12-23 08:56:32 51°18.451 2°50.863 70.8 0.5 223.3 12.8
2002-12-23 08:56:36 51°18.45 2°50.862 71.2 0.6 219.7 12.8
2002-12-23 08:56:42 51°18.45 2°50.861 71.8 0.5 221.6 12.8
2002-12-23 08:56:48 51°18.449 2°50.86 72.3 0.6 215.4 12.8
2002-12-23 08:56:52 51°18.448 2°50.86 72.7 0.6 212.7 12.8
2002-12-23 08:56:58 51°18.448 2°50.859 73.3 0.6 213.9 12.7
2002-12-23 08:57:02 51°18.447 2°50.858 73.7 0.5 213.7 12.7
2002-12-23 08:57:08 51°18.446 2°50.858 74 0.6 212.8 12.8
2002-12-23 08:57:13 51°18.446 2°50.857 74.5 0.6 215.9 12.8
2002-12-23 08:57:18 51°18.445 2°50.856 75.2 0.6 214.2 12.7
2002-12-23 08:57:22 51°18.444 2°50.855 75.5 0.6 214 12.8
2002-12-23 08:57:27 51°18.444 2°50.855 76 0.6 210.9 12.9
2002-12-23 08:57:33 51°18.443 2°50.854 76.5 0.6 215.6 12.9
2002-12-23 08:57:38 51°18.442 2°50.853 77.2 0.6 210.9 12.8
2002-12-23 08:57:42 51°18.442 2°50.853 77.5 0.6 209.8 12.7
2002-12-23 08:57:47 51°18.441 2°50.852 78 0.6 205.9 12.7
2002-12-23 08:57:52 51°18.44 2°50.851 78.7 0.6 207.6 12.8
2002-12-23 08:57:58 51°18.439 2°50.851 79 0.6 206 12.8
2002-12-23 08:58:03 51°18.439 2°50.85 79.7 0.6 207 12.8
2002-12-23 08:58:07 51°18.438 2°50.85 79.8 0.6 205.5 12.7
2002-12-23 08:58:12 51°18.437 2°50.849 80.2 0.6 205.5 12.7
2002-12-23 08:58:17 51°18.437 2°50.848 80.7 0.6 208.1 12.9
2002-12-23 08:58:22 51°18.436 2°50.847 81.2 0.6 207.1 12.8
2002-12-23 08:58:26 51°18.435 2°50.847 81.5 0.6 204.9 12.8
2002-12-23 08:58:33 51°18.434 2°50.846 82 0.6 204 12.8
2002-12-23 08:58:37 51°18.433 2°50.846 82.5 0.6 205.4 12.8
2002-12-23 08:58:42 51°18.432 2°50.845 82.5 0.7 200.7 12.8
2002-12-23 08:58:48 51°18.431 2°50.844 83.3 0.7 201.7 12.7
2002-12-23 08:58:52 51°18.431 2°50.844 83.7 0.6 200.4 12.8
2002-12-23 08:58:57 51°18.43 2°50.844 83.7 0.7 201 12.8
2002-12-23 08:59:02 51°18.429 2°50.843 84.3 0.7 201.7 12.8
2002-12-23 08:59:06 51°18.429 2°50.843 85 0.6 201.3 12.8
2002-12-23 08:59:12 51°18.427 2°50.842 85.5 0.7 196.2 12.7
2002-12-23 08:59:18 51°18.426 2°50.841 85.3 0.6 196.6 12.7
2002-12-23 08:59:22 51°18.426 2°50.841 85.7 0.7 196.8 12.8
2002-12-23 08:59:28 51°18.425 2°50.841 86.2 0.7 197.9 12.4
2002-12-23 08:59:33 51°18.424 2°50.84 86.7 0.7 195.3 12.8
2002-12-23 08:59:37 51°18.423 2°50.84 86.8 0.7 197.2 12.8
2002-12-23 08:59:42 51°18.422 2°50.839 87.3 0.6 197.4 12.8
2002-12-23 08:59:47 51°18.421 2°50.84 87.8 0.7 173.8 12.9
2002-12-23 08:59:52 51°18.421 2°50.844 89.2 1.1 122.7 12.8
2002-12-23 08:59:58 51°18.42 2°50.851 91.7 2.1 106.2 12.7
2002-12-23 09:00:03 51°18.419 2°50.86 95 3.3 102.5 12.7
2002-12-23 09:00:07 51°18.417 2°50.868 97.8 4.2 102.1 12.5
2002-12-23 09:00:13 51°18.416 2°50.882 93.8 4.9 100.3 12.6
2002-12-23 09:00:18 51°18.417 2°50.895 85.8 5.6 93.2 12.5
2002-12-23 09:00:22 51°18.418 2°50.908 77.3 6.4 84.6 12.7
2002-12-23 09:00:27 51°18.422 2°50.924 73.7 7.3 75.1 12.7
2002-12-23 09:00:32 51°18.425 2°50.943 72.2 8.2 72.7 12.6
2002-12-23 09:00:36 51°18.429 2°50.958 71 9.1 69.7 12.6
2002-12-23 09:00:42 51°18.435 2°50.983 70.5 9.8 69.4 12.6
2002-12-23 09:00:46 51°18.44 2°51 69.2 10.5 67.3 12.5
2002-12-23 09:00:53 51°18.449 2°51.032 69.2 11 66.9 12.4
2002-12-23 09:00:57 51°18.454 2°51.051 68.8 11.3 66.4 12.5
2002-12-23 09:01:02 51°18.461 2°51.075 68 11.6 66 12.4
2002-12-23 09:01:08 51°18.469 2°51.104 68.5 11.9 65.7 12.5
2002-12-23 09:01:12 51°18.474 2°51.123 69 12 66.1 12.5
2002-12-23 09:01:18 51°18.483 2°51.153 69.5 12.1 66.6 12.3
2002-12-23 09:01:22 51°18.487 2°51.173 70.5 12.2 67.6 12.4
2002-12-23 09:01:28 51°18.495 2°51.203 70.3 12.3 68 12.4
2002-12-23 09:01:33 51°18.501 2°51.229 70.8 12.3 68.2 12.4
2002-12-23 09:01:38 51°18.507 2°51.254 71.8 12.3 68.6 12.4
2002-12-23 09:01:43 51°18.513 2°51.28 71.8 12.4 69.5 12.4
2002-12-23 09:01:46 51°18.517 2°51.295 72.7 12.5 70 12.3
2002-12-23 09:01:52 51°18.524 2°51.327 72.8 12.5 71 12.3
2002-12-23 09:01:58 51°18.53 2°51.358 73.7 12.5 71.2 12.3
2002-12-23 09:02:02 51°18.534 2°51.379 74.3 12.5 71.7 12.2
2002-12-23 09:02:07 51°18.54 2°51.406 74.7 12.5 72.5 12.2
2002-12-23 09:02:12 51°18.545 2°51.432 74.2 12.6 72.5 12.3
2002-12-23 09:02:18 51°18.552 2°51.464 74.5 12.6 72.5 12.2
2002-12-23 09:02:23 51°18.557 2°51.49 74.8 12.5 72.6 12.1
2002-12-23 09:02:26 51°18.56 2°51.506 74 12.6 72.4 12.1
2002-12-23 09:02:33 51°18.567 2°51.544 74.2 12.6 72.3 12
2002-12-23 09:02:37 51°18.572 2°51.565 73.8 12.6 71.7 12
2002-12-23 09:02:42 51°18.577 2°51.591 74.2 12.6 72 11.9
2002-12-23 09:02:47 51°18.583 2°51.618 74.2 12.6 72.1 12
2002-12-23 09:02:50 51°18.586 2°51.634 74.5 12.7 72 11.9
2002-12-23 09:02:58 51°18.594 2°51.677 74.8 12.7 72.3 11.8
2002-12-23 09:03:02 51°18.599 2°51.698 74 12.7 72.1 11.8
2002-12-23 09:03:07 51°18.604 2°51.725 74.5 12.7 72.3 11.8
2002-12-23 09:03:12 51°18.609 2°51.751 75 12.6 72.8 11.8
2002-12-23 09:03:18 51°18.616 2°51.783 74.7 12.7 72.4 11.7
2002-12-23 09:03:22 51°18.619 2°51.805 74.8 12.7 73 11.6
2002-12-23 09:03:26 51°18.624 2°51.827 75.2 12.7 72.8 11.6
2002-12-23 09:03:33 51°18.63 2°51.865 75.2 12.7 73.4 11.6
2002-12-23 09:03:38 51°18.635 2°51.892 76 12.6 73.6 11.5
2002-12-23 09:03:42 51°18.639 2°51.914 76 12.6 74.1 11.5
2002-12-23 09:03:47 51°18.644 2°51.94 75.2 12.7 73.4 11.4
2002-12-23 09:03:51 51°18.648 2°51.962 75.2 12.7 73.2 11.4
2002-12-23 09:03:58 51°18.656 2°51.999 75 12.7 72.8 11.4
2002-12-23 09:04:02 51°18.66 2°52.02 75.2 12.6 73 11.3
2002-12-23 09:04:06 51°18.664 2°52.041 75.3 12.6 73.1 11.3
2002-12-23 09:04:13 51°18.671 2°52.079 75.3 12.7 73.1 11.2
2002-12-23 09:04:18 51°18.676 2°52.106 75 12.7 73 11.2
2002-12-23 09:04:22 51°18.681 2°52.127 75 12.7 72.9 11.2
2002-12-23 09:04:28 51°18.686 2°52.16 76 12.6 73.7 11.1
2002-12-23 09:04:32 51°18.69 2°52.181 75 12.7 73.6 11
2002-12-23 09:04:37 51°18.696 2°52.208 74.2 12.7 72.8 11
2002-12-23 09:04:43 51°18.702 2°52.24 74.3 12.6 72.3 11
2002-12-23 09:04:46 51°18.705 2°52.255 74.5 12.6 72.2 10.9
2002-12-23 09:04:53 51°18.713 2°52.293 73.7 12.6 72 10.9
2002-12-23 09:04:57 51°18.718 2°52.314 73.5 12.9 70.2 10.8
2002-12-23 09:05:02 51°18.724 2°52.34 73.8 12.9 70 10.9
2002-12-23 09:05:06 51°18.728 2°52.361 74.7 12.7 71.3 10.9
2002-12-23 09:05:10 51°18.732 2°52.382 74.3 12.6 72.2 10.8
2002-12-23 09:05:18 51°18.74 2°52.425 74.2 12.6 72.6 10.7
2002-12-23 09:05:22 51°18.745 2°52.446 73.3 12.7 71.3 10.8
2002-12-23 09:05:28 51°18.752 2°52.478 74 12.7 71.9 10.8
2002-12-23 09:05:32 51°18.756 2°52.499 74 12.6 71.5 10.7
2002-12-23 09:05:38 51°18.763 2°52.531 74.5 12.6 72.2 10.7
2002-12-23 09:05:42 51°18.767 2°52.553 74.3 12.6 71.6 10.6
2002-12-23 09:05:48 51°18.773 2°52.585 73.7 12.7 71.9 10.7
2002-12-23 09:05:52 51°18.778 2°52.606 73.7 12.6 71.6 10.5
2002-12-23 09:05:58 51°18.784 2°52.638 73.8 12.6 71.9 10.6
2002-12-23 09:06:02 51°18.788 2°52.659 74.2 12.7 72 10.6
2002-12-23 09:06:08 51°18.795 2°52.691 75.3 12.7 73 10.5
2002-12-23 09:06:10 51°18.796 2°52.702 75.8 12.7 73.9 10.6
2002-12-23 09:06:18 51°18.804 2°52.745 76.2 12.7 74.1 10.6
2002-12-23 09:06:23 51°18.808 2°52.773 76.2 12.7 74.3 10.6
2002-12-23 09:06:28 51°18.813 2°52.8 75.3 12.7 73.7 10.5
2002-12-23 09:06:33 51°18.819 2°52.826 74.8 12.7 73 10.5
2002-12-23 09:06:38 51°18.824 2°52.853 74 12.7 72.1 10.4
2002-12-23 09:06:42 51°18.829 2°52.874 73.7 12.7 71.7 10.4
2002-12-23 09:06:47 51°18.835 2°52.901 73.8 12.7 71.3 10.4
2002-12-23 09:06:52 51°18.84 2°52.927 73.8 12.7 71.8 10.4
2002-12-23 09:06:58 51°18.847 2°52.959 73.5 12.7 71.5 10.4
2002-12-23 09:07:02 51°18.852 2°52.98 74 12.7 71.6 10.4
2002-12-23 09:07:08 51°18.859 2°53.012 74 12.6 72.2 10.4
2002-12-23 09:07:12 51°18.863 2°53.033 74.8 12.7 72.5 10.4
2002-12-23 09:07:18 51°18.868 2°53.066 75.2 12.7 73.1 10.4
2002-12-23 09:07:22 51°18.872 2°53.088 76 12.7 73.5 10.5
2002-12-23 09:07:28 51°18.878 2°53.12 75.7 12.7 73.9 10.5
2002-12-23 09:07:32 51°18.882 2°53.141 75.3 12.7 73.3 10.5
2002-12-23 09:07:38 51°18.888 2°53.173 74.7 12.6 73 10.4
2002-12-23 09:07:42 51°18.892 2°53.195 75 12.6 72.7 10.4
2002-12-23 09:07:48 51°18.899 2°53.227 74.8 12.7 72.9 10.5
2002-12-23 09:07:53 51°18.904 2°53.254 74.5 12.7 72.6 10.4
2002-12-23 09:07:58 51°18.909 2°53.281 74.8 12.7 72.6 10.5
2002-12-23 09:08:02 51°18.913 2°53.303 75 12.7 72.9 10.5
2002-12-23 09:08:08 51°18.919 2°53.335 75.3 12.8 72.7 10.5
2002-12-23 09:08:12 51°18.923 2°53.357 75 12.8 72.8 10.5
2002-12-23 09:08:18 51°18.929 2°53.389 75.5 12.8 73.4 10.5
2002-12-23 09:08:22 51°18.933 2°53.41 75.5 12.8 73.3 10.5
2002-12-23 09:08:28 51°18.939 2°53.443 75.8 12.8 73.6 10.5
2002-12-23 09:08:32 51°18.943 2°53.464 75.8 12.8 73.5 10.5
2002-12-23 09:08:38 51°18.95 2°53.497 75.3 12.8 73.4 10.5
2002-12-23 09:08:42 51°18.954 2°53.519 74.8 12.8 72.9 10.6
2002-12-23 09:08:48 51°18.96 2°53.55 74.5 12.7 72.3 10.5
2002-12-23 09:08:52 51°18.964 2°53.572 74.2 12.7 72 10.5
2002-12-23 09:08:58 51°18.971 2°53.604 73.8 12.7 71.4 10.6
2002-12-23 09:09:02 51°18.975 2°53.626 74 12.8 71.7 10.5
2002-12-23 09:09:08 51°18.982 2°53.658 74.3 12.8 72.1 10.6
2002-12-23 09:09:12 51°18.986 2°53.68 74.5 12.8 72.2 10.5
2002-12-23 09:09:18 51°18.993 2°53.712 74.8 12.7 72.5 10.6
2002-12-23 09:09:22 51°18.997 2°53.733 74.8 12.8 72.5 10.5
2002-12-23 09:09:28 51°19.004 2°53.765 74.5 12.8 72.3 10.5
2002-12-23 09:09:32 51°19.009 2°53.787 74.7 12.8 72.2 10.6
2002-12-23 09:09:38 51°19.016 2°53.819 74 12.8 71.6 10.6
2002-12-23 09:09:43 51°19.022 2°53.845 74 12.7 71.7 10.6
2002-12-23 09:09:48 51°19.027 2°53.872 74 12.7 71.3 10.6
2002-12-23 09:09:53 51°19.033 2°53.898 74.3 12.7 71.8 10.5
2002-12-23 09:09:58 51°19.038 2°53.926 74 12.7 71.8 10.5
2002-12-23 09:10:02 51°19.043 2°53.947 73.7 12.8 71 10.5
2002-12-23 09:10:08 51°19.05 2°53.979 73.8 12.7 71.3 10.5
2002-12-23 09:10:12 51°19.054 2°54 73.8 12.7 71.2 10.5
2002-12-23 09:10:18 51°19.06 2°54.032 74.5 12.6 72.4 10.5
2002-12-23 09:10:22 51°19.065 2°54.053 74.5 12.6 72.1 10.5
2002-12-23 09:10:28 51°19.072 2°54.085 74.2 12.7 71.8 10.5
2002-12-23 09:10:32 51°19.076 2°54.107 74 12.7 71.5 10.5
2002-12-23 09:10:38 51°19.083 2°54.138 73.2 12.7 71 10.6
2002-12-23 09:10:43 51°19.088 2°54.164 74 12.5 71.5 10.6
2002-12-23 09:10:48 51°19.094 2°54.191 74.3 12.5 71.6 10.5
2002-12-23 09:10:52 51°19.097 2°54.213 74.2 12.6 71.7 10.5
2002-12-23 09:10:58 51°19.104 2°54.245 74.3 12.7 71.7 10.5
2002-12-23 09:11:02 51°19.108 2°54.266 74.2 12.7 71.5 10.5
2002-12-23 09:11:08 51°19.115 2°54.298 74.5 12.7 71.9 10.6
2002-12-23 09:11:12 51°19.12 2°54.319 74.7 12.6 72.1 10.6
2002-12-23 09:11:18 51°19.126 2°54.35 75.3 12.6 72.8 10.6
2002-12-23 09:11:22 51°19.13 2°54.372 76.3 12.6 73.8 10.5
2002-12-23 09:11:28 51°19.136 2°54.404 76.8 12.6 74.4 10.5
2002-12-23 09:11:32 51°19.139 2°54.426 77 12.7 74.8 10.5
2002-12-23 09:11:38 51°19.145 2°54.458 76.7 12.8 74.5 10.5
2002-12-23 09:11:43 51°19.15 2°54.485 76.7 12.7 74.7 10.5
2002-12-23 09:11:48 51°19.154 2°54.513 77.2 12.6 74.7 10.5
2002-12-23 09:11:52 51°19.157 2°54.534 77 12.7 74.9 10.5
2002-12-23 09:11:58 51°19.163 2°54.567 76.8 12.7 74.8 10.5
2002-12-23 09:12:02 51°19.167 2°54.588 76.8 12.7 74.5 10.6
2002-12-23 09:12:08 51°19.173 2°54.621 76.5 12.7 74.4 10.5
2002-12-23 09:12:13 51°19.177 2°54.648 77 12.7 74.7 10.5
2002-12-23 09:12:18 51°19.182 2°54.675 77.3 12.7 74.8 10.5
2002-12-23 09:12:22 51°19.185 2°54.696 77.2 12.7 75 10.5
2002-12-23 09:12:28 51°19.191 2°54.729 77 12.7 74.7 10.5
2002-12-23 09:12:32 51°19.195 2°54.751 76.7 12.7 74.6 10.5
2002-12-23 09:12:38 51°19.201 2°54.783 76 12.7 73.7 10.5
2002-12-23 09:12:42 51°19.205 2°54.804 75.5 12.7 72.9 10.5
2002-12-23 09:12:48 51°19.211 2°54.836 75 12.7 72.6 10.5
2002-12-23 09:12:52 51°19.215 2°54.858 75.7 12.6 72.9 10.5
2002-12-23 09:12:58 51°19.222 2°54.89 76 12.6 73.2 10.5
2002-12-23 09:13:03 51°19.227 2°54.917 75.8 12.7 73.4 10.5
2002-12-23 09:13:08 51°19.232 2°54.943 75.2 12.7 72.6 10.5
2002-12-23 09:13:13 51°19.237 2°54.97 75 12.7 72.6 10.4
2002-12-23 09:13:18 51°19.243 2°54.997 75 12.7 72 10.5
2002-12-23 09:13:22 51°19.247 2°55.019 74.7 12.7 72 10.5
2002-12-23 09:13:28 51°19.254 2°55.05 74.5 12.7 71.8 10.4
2002-12-23 09:13:32 51°19.258 2°55.072 74.3 12.7 71.5 10.6
2002-12-23 09:13:38 51°19.265 2°55.104 74.2 12.7 71.5 10.5
2002-12-23 09:13:42 51°19.269 2°55.125 74 12.7 71.2 10.5
2002-12-23 09:13:48 51°19.276 2°55.157 74 12.6 71.2 10.5
2002-12-23 09:13:52 51°19.28 2°55.178 74.5 12.6 71.5 10.4
2002-12-23 09:13:58 51°19.286 2°55.21 74.8 12.7 72 10.5
2002-12-23 09:14:02 51°19.291 2°55.231 74.7 12.7 71.8 10.4
2002-12-23 09:14:08 51°19.297 2°55.263 74.8 12.7 72.1 10.4
2002-12-23 09:14:13 51°19.303 2°55.29 75.2 12.7 72.4 10.4
2002-12-23 09:14:18 51°19.308 2°55.317 75.3 12.7 73 10.4
2002-12-23 09:14:22 51°19.312 2°55.338 75.7 12.7 73.2 10.4
2002-12-23 09:14:28 51°19.318 2°55.371 75.7 12.7 73.1 10.3
2002-12-23 09:14:32 51°19.322 2°55.392 75.5 12.7 72.9 10.4
2002-12-23 09:14:38 51°19.328 2°55.424 76 12.6 73.2 10.3
2002-12-23 09:14:42 51°19.332 2°55.446 76 12.6 73.3 10.3
2002-12-23 09:14:48 51°19.338 2°55.478 75.3 12.6 73 10.3
2002-12-23 09:14:52 51°19.343 2°55.499 75 12.6 72.3 10.3
2002-12-23 09:14:58 51°19.349 2°55.531 75.2 12.6 72.5 10.4
2002-12-23 09:15:02 51°19.353 2°55.552 74.8 12.6 71.9 10.3
2002-12-23 09:15:08 51°19.36 2°55.584 75.2 12.5 72 10.3
2002-12-23 09:15:12 51°19.364 2°55.605 75.8 12.6 72.5 10.3
2002-12-23 09:15:18 51°19.37 2°55.637 75.5 12.7 72.7 10.3
2002-12-23 09:15:22 51°19.374 2°55.658 76.2 12.6 73.1 10.3
2002-12-23 09:15:28 51°19.38 2°55.69 76 12.5 73 10.3
2002-12-23 09:15:32 51°19.384 2°55.711 75.8 12.5 73 10.2
2002-12-23 09:15:38 51°19.39 2°55.743 75.5 12.5 72.8 10.3
2002-12-23 09:15:43 51°19.396 2°55.77 75.2 12.6 72.3 10.2
2002-12-23 09:15:48 51°19.401 2°55.796 75.2 12.6 72.3 10.2
2002-12-23 09:15:53 51°19.407 2°55.823 74.8 12.6 71.6 10.2
2002-12-23 09:15:58 51°19.412 2°55.849 74.8 12.6 71.8 10.2
2002-12-23 09:16:02 51°19.416 2°55.87 74.7 12.5 71.4 10.2
2002-12-23 09:16:08 51°19.423 2°55.902 74.8 12.6 71.3 10.2
2002-12-23 09:16:12 51°19.428 2°55.923 74.7 12.7 71.7 10.1
2002-12-23 09:16:18 51°19.435 2°55.955 73.3 12.7 70.2 10
2002-12-23 09:16:22 51°19.439 2°55.976 73.8 12.7 70.8 10.1
2002-12-23 09:16:28 51°19.447 2°56.007 73 12.6 69.8 10.1
2002-12-23 09:16:32 51°19.451 2°56.028 74 12.5 70.6 10.1
2002-12-23 09:16:38 51°19.458 2°56.06 74.7 12.6 70.7 10.1